Time;durP1;ratioP1;P1;durP2;ratioP2;P2;SDS_P1;SDS_P2;PMS_P1;PMS_P2;Temp;Humidity;BMP_temperature;BMP_pressure;BME280_temperature;BME280_humidity;BME280_pressure;Samples;Min_cycle;Max_cycle;Signal;HPM_P1;HPM_P2
2023/12/29 00:01:54;;;;;;;13.43;3.10;;;9.50;99.90;;;;;;5084711;28;20333;-47
2023/12/29 00:04:20;;;;;;;12.50;2.72;;;9.40;99.90;;;;;;5081026;28;20043;-46
2023/12/29 00:06:45;;;;;;;9.32;2.47;;;9.40;99.90;;;;;;5087855;28;20404;-46
2023/12/29 00:09:12;;;;;;;11.25;2.75;;;9.40;99.90;;;;;;5076974;28;20040;-47
2023/12/29 00:11:39;;;;;;;14.20;2.83;;;9.40;99.90;;;;;;5078610;28;20048;-47
2023/12/29 00:14:05;;;;;;;12.95;2.75;;;9.40;99.90;;;;;;5084133;28;20529;-45
2023/12/29 00:16:31;;;;;;;11.90;2.60;;;9.40;99.90;;;;;;5087479;28;20044;-45
2023/12/29 00:18:56;;;;;;;13.90;2.65;;;9.40;99.90;;;;;;5066718;28;20048;-45
2023/12/29 00:21:22;;;;;;;14.20;3.25;;;9.40;99.90;;;;;;5078010;28;20053;-45
2023/12/29 00:23:48;;;;;;;12.82;2.85;;;9.30;99.90;;;;;;5079720;28;20430;-45
2023/12/29 00:26:17;;;;;;;13.45;3.15;;;9.40;99.90;;;;;;5084135;28;20093;-45
2023/12/29 00:28:44;;;;;;;13.10;2.80;;;9.30;99.90;;;;;;5087691;28;20127;-45
2023/12/29 00:31:15;;;;;;;11.80;2.75;;;9.30;99.90;;;;;;5082804;28;20039;-46
2023/12/29 00:33:41;;;;;;;8.85;2.40;;;9.30;99.90;;;;;;5085528;28;20036;-45
2023/12/29 00:36:07;;;;;;;12.43;2.70;;;9.30;99.90;;;;;;5080107;28;20044;-45
2023/12/29 00:38:33;;;;;;;12.15;3.00;;;9.30;99.90;;;;;;5082985;28;20419;-45
2023/12/29 00:40:58;;;;;;;7.75;2.15;;;9.30;99.90;;;;;;5082124;28;20052;-45
2023/12/29 00:43:24;;;;;;;13.40;2.70;;;9.20;99.90;;;;;;5080689;28;20048;-45
2023/12/29 00:45:50;;;;;;;11.52;2.67;;;9.30;99.90;;;;;;5077276;28;20550;-45
2023/12/29 00:48:15;;;;;;;10.43;3.00;;;9.20;99.90;;;;;;5066936;28;20105;-45
2023/12/29 00:50:41;;;;;;;12.95;3.08;;;9.30;99.90;;;;;;5080614;28;20378;-47
2023/12/29 00:53:07;;;;;;;13.32;3.28;;;9.30;99.90;;;;;;5082743;28;20044;-45
2023/12/29 00:55:32;;;;;;;12.98;2.80;;;9.20;99.90;;;;;;5086495;28;20038;-46
2023/12/29 00:57:58;;;;;;;11.40;2.95;;;9.30;99.90;;;;;;5085397;28;20369;-47
2023/12/29 01:00:24;;;;;;;12.38;3.33;;;9.20;99.90;;;;;;5066308;28;20036;-45
2023/12/29 01:02:49;;;;;;;13.93;3.03;;;9.20;99.90;;;;;;5086622;28;20533;-45
2023/12/29 01:05:18;;;;;;;13.05;2.70;;;9.20;99.90;;;;;;5081558;28;20521;-46
2023/12/29 01:07:44;;;;;;;17.88;3.63;;;9.20;99.90;;;;;;5083489;28;20044;-46
2023/12/29 01:10:09;;;;;;;11.98;2.90;;;9.20;99.90;;;;;;5082459;28;20052;-48
2023/12/29 01:12:35;;;;;;;14.00;3.17;;;9.20;99.90;;;;;;5085069;28;20036;-47
2023/12/29 01:15:00;;;;;;;15.52;2.88;;;9.20;99.90;;;;;;5088241;28;20044;-45
2023/12/29 01:17:28;;;;;;;17.08;2.92;;;9.20;99.90;;;;;;5085679;28;20152;-46
2023/12/29 01:19:54;;;;;;;15.85;3.17;;;9.20;99.90;;;;;;5082845;28;21235;-46
2023/12/29 01:22:19;;;;;;;15.13;2.75;;;9.20;99.90;;;;;;5081199;28;20180;-47
2023/12/29 01:24:45;;;;;;;17.60;3.53;;;9.20;99.90;;;;;;5088426;28;20041;-45
2023/12/29 01:27:10;;;;;;;14.10;2.72;;;9.30;99.90;;;;;;5086621;28;20072;-45
2023/12/29 01:29:36;;;;;;;10.48;3.00;;;9.30;99.90;;;;;;5083194;28;20044;-45
2023/12/29 01:32:03;;;;;;;11.68;2.83;;;9.40;99.90;;;;;;5086810;28;20090;-45
2023/12/29 01:34:32;;;;;;;14.00;2.90;;;9.40;99.90;;;;;;5088307;28;20048;-45
2023/12/29 01:37:03;;;;;;;10.63;2.78;;;9.40;99.90;;;;;;5086540;28;20052;-47
2023/12/29 01:39:29;;;;;;;16.20;3.78;;;9.40;99.90;;;;;;5088140;28;20097;-46
2023/12/29 01:41:58;;;;;;;15.25;2.70;;;9.40;99.90;;;;;;5087674;28;20052;-45
2023/12/29 01:44:23;;;;;;;12.65;2.67;;;9.40;99.90;;;;;;5070870;28;20044;-46
2023/12/29 01:46:51;;;;;;;10.50;2.83;;;9.40;99.90;;;;;;5085437;28;20044;-46
2023/12/29 01:49:18;;;;;;;13.10;2.80;;;9.40;99.90;;;;;;5089950;28;20537;-45
2023/12/29 01:51:45;;;;;;;9.85;2.80;;;9.40;99.90;;;;;;5089459;28;20547;-45
2023/12/29 01:54:12;;;;;;;12.15;3.08;;;9.40;99.90;;;;;;5084730;28;20058;-45
2023/12/29 01:56:38;;;;;;;12.68;2.67;;;9.40;99.90;;;;;;5089127;28;20040;-45
2023/12/29 01:59:04;;;;;;;9.40;2.75;;;9.40;99.90;;;;;;5084586;28;20119;-45
2023/12/29 02:01:30;;;;;;;14.05;3.15;;;9.40;99.90;;;;;;5084319;28;20488;-45
2023/12/29 02:03:56;;;;;;;13.05;2.67;;;9.40;99.90;;;;;;5085893;28;20358;-47
2023/12/29 02:06:21;;;;;;;8.73;2.40;;;9.40;99.90;;;;;;5068842;28;20529;-45
2023/12/29 02:08:47;;;;;;;11.70;2.70;;;9.40;99.90;;;;;;5086147;28;20044;-45
2023/12/29 02:11:14;;;;;;;12.25;3.00;;;9.40;99.90;;;;;;5088719;28;20090;-45
2023/12/29 02:13:39;;;;;;;11.90;2.60;;;9.40;99.90;;;;;;5087720;28;20561;-45
2023/12/29 02:16:11;;;;;;;15.18;3.55;;;9.40;99.90;;;;;;5083656;28;20238;-46
2023/12/29 02:18:40;;;;;;;11.65;2.78;;;9.40;99.90;;;;;;5085295;28;20054;-45
2023/12/29 02:21:06;;;;;;;13.85;2.58;;;9.40;99.90;;;;;;5084563;28;20143;-45
2023/12/29 02:23:31;;;;;;;13.20;2.50;;;9.40;99.90;;;;;;5086139;28;20521;-45
2023/12/29 02:26:09;;;;;;;12.30;3.05;;;9.30;99.90;;;;;;5084337;28;20113;-44
2023/12/29 02:28:40;;;;;;;10.70;2.22;;;9.30;99.90;;;;;;5083834;28;20059;-45
2023/12/29 02:31:18;;;;;;;10.30;2.40;;;9.30;99.90;;;;;;5086414;28;20051;-44
2023/12/29 02:33:45;;;;;;;8.43;2.10;;;9.30;99.90;;;;;;5080381;28;20119;-45
2023/12/29 02:36:13;;;;;;;13.02;2.47;;;9.30;99.90;;;;;;5088625;28;20498;-44
2023/12/29 02:38:39;;;;;;;13.70;2.72;;;9.30;99.90;;;;;;5078658;28;20494;-47
2023/12/29 02:41:06;;;;;;;7.57;2.47;;;9.40;99.90;;;;;;5083342;28;20386;-46
2023/12/29 02:43:32;;;;;;;11.20;2.58;;;9.40;99.90;;;;;;5084565;28;20427;-46
2023/12/29 02:45:58;;;;;;;15.38;2.47;;;9.40;99.90;;;;;;5085002;28;20123;-47
2023/12/29 02:48:23;;;;;;;10.00;2.47;;;9.40;99.90;;;;;;5083186;28;20158;-45
2023/12/29 02:50:49;;;;;;;12.30;2.50;;;9.50;99.90;;;;;;5083091;28;20036;-45
2023/12/29 02:53:15;;;;;;;13.65;2.50;;;9.50;99.90;;;;;;5088796;28;20147;-47
2023/12/29 02:55:41;;;;;;;12.02;2.75;;;9.50;99.90;;;;;;5082825;28;20040;-46
2023/12/29 02:58:07;;;;;;;13.40;3.03;;;9.60;99.90;;;;;;5084524;28;20131;-45
2023/12/29 03:00:33;;;;;;;11.35;2.63;;;9.60;99.90;;;;;;5085493;28;20115;-46
2023/12/29 03:02:59;;;;;;;9.38;2.00;;;9.60;99.90;;;;;;5086814;28;20036;-47
2023/12/29 03:05:24;;;;;;;11.45;2.78;;;9.60;99.90;;;;;;5088993;28;20047;-46
2023/12/29 03:07:50;;;;;;;7.35;2.15;;;9.60;99.90;;;;;;5084012;28;20047;-48
2023/12/29 03:10:15;;;;;;;12.27;2.60;;;9.70;99.90;;;;;;5083686;28;20044;-46
2023/12/29 03:12:41;;;;;;;10.27;2.72;;;9.70;99.90;;;;;;5087558;28;20040;-45
2023/12/29 03:15:07;;;;;;;10.18;3.13;;;9.70;99.90;;;;;;5086063;28;20097;-49
2023/12/29 03:17:32;;;;;;;9.20;2.83;;;9.60;99.90;;;;;;5067698;28;20043;-45
2023/12/29 03:19:58;;;;;;;10.68;2.80;;;9.60;99.90;;;;;;5083834;28;20036;-46
2023/12/29 03:22:24;;;;;;;15.25;3.35;;;9.60;99.90;;;;;;5080582;28;20542;-45
2023/12/29 03:24:49;;;;;;;12.13;2.88;;;9.50;99.90;;;;;;5081557;28;20055;-45
2023/12/29 03:27:15;;;;;;;12.52;3.20;;;9.50;99.90;;;;;;5083575;28;20842;-46
2023/12/29 03:29:41;;;;;;;11.20;2.70;;;9.50;99.90;;;;;;5079031;28;20097;-45
2023/12/29 03:32:07;;;;;;;9.75;2.80;;;9.40;99.90;;;;;;5079703;28;20032;-45
2023/12/29 03:34:33;;;;;;;12.95;3.40;;;9.40;99.90;;;;;;5083005;28;20059;-45
2023/12/29 03:36:58;;;;;;;10.07;2.45;;;9.40;99.90;;;;;;5082914;28;20032;-45
2023/12/29 03:39:24;;;;;;;10.90;2.50;;;9.40;99.90;;;;;;5077773;28;20094;-45
2023/12/29 03:41:50;;;;;;;9.60;2.63;;;9.40;99.90;;;;;;5060805;28;20045;-45
2023/12/29 03:44:16;;;;;;;11.55;2.88;;;9.40;99.90;;;;;;5060747;28;20028;-44
2023/12/29 03:46:43;;;;;;;15.18;3.47;;;9.40;99.90;;;;;;5064850;28;20498;-46
2023/12/29 03:49:09;;;;;;;10.23;3.05;;;9.40;99.90;;;;;;5066102;28;20037;-45
2023/12/29 03:51:35;;;;;;;10.93;3.00;;;9.50;99.90;;;;;;5067931;28;20040;-45
2023/12/29 03:54:00;;;;;;;11.30;2.55;;;9.40;99.90;;;;;;5061703;28;20041;-47
2023/12/29 03:56:26;;;;;;;10.43;2.55;;;9.50;99.90;;;;;;5058318;28;20251;-46
2023/12/29 03:58:52;;;;;;;12.32;3.10;;;9.60;99.90;;;;;;5061432;28;20493;-46
2023/12/29 04:01:19;;;;;;;14.80;2.90;;;9.60;99.90;;;;;;5062598;28;20044;-46
2023/12/29 04:03:45;;;;;;;10.85;2.88;;;9.60;99.90;;;;;;5064336;28;20094;-46
2023/12/29 04:06:11;;;;;;;16.38;3.08;;;9.60;99.90;;;;;;5062369;28;20052;-46
2023/12/29 04:08:37;;;;;;;13.30;3.17;;;9.60;99.90;;;;;;5072546;28;20032;-48
2023/12/29 04:11:04;;;;;;;13.90;3.25;;;9.50;99.90;;;;;;5063314;28;20458;-46
2023/12/29 04:13:30;;;;;;;12.25;3.30;;;9.50;99.90;;;;;;5067204;28;20402;-46
2023/12/29 04:15:55;;;;;;;14.38;3.03;;;9.50;99.90;;;;;;5067570;28;20033;-44
2023/12/29 04:18:22;;;;;;;17.67;3.22;;;9.60;99.90;;;;;;5064916;28;20126;-46
2023/12/29 04:20:48;;;;;;;13.70;2.73;;;9.50;99.90;;;;;;5064428;28;20040;-45
2023/12/29 04:23:14;;;;;;;17.13;3.47;;;9.50;99.90;;;;;;5066065;28;20397;-45
2023/12/29 04:25:39;;;;;;;14.00;3.00;;;9.40;99.90;;;;;;5068105;28;20036;-45
2023/12/29 04:28:06;;;;;;;17.52;3.20;;;9.40;99.90;;;;;;5068765;28;20037;-47
2023/12/29 04:30:32;;;;;;;15.95;3.78;;;9.40;99.90;;;;;;5067028;28;20055;-46
2023/12/29 04:32:57;;;;;;;18.83;3.45;;;9.40;99.90;;;;;;5067839;28;20033;-46
2023/12/29 04:35:23;;;;;;;12.23;2.65;;;9.40;99.90;;;;;;5069166;28;20036;-45
2023/12/29 04:37:49;;;;;;;18.80;3.60;;;9.40;99.90;;;;;;5070591;28;20044;-45
2023/12/29 04:40:15;;;;;;;14.63;2.72;;;9.40;99.90;;;;;;5079960;28;20040;-46
2023/12/29 04:42:40;;;;;;;16.60;2.88;;;9.30;99.90;;;;;;5087270;28;20044;-46
2023/12/29 04:45:07;;;;;;;16.42;3.47;;;9.30;99.90;;;;;;5079553;28;20079;-49
2023/12/29 04:47:32;;;;;;;16.65;3.30;;;9.30;99.90;;;;;;5084455;28;20043;-46
2023/12/29 04:49:58;;;;;;;13.30;3.05;;;9.30;99.90;;;;;;5081568;28;20044;-45
2023/12/29 04:52:24;;;;;;;13.38;2.90;;;9.30;99.90;;;;;;5081144;28;20411;-45
2023/12/29 04:54:49;;;;;;;15.05;3.03;;;9.30;99.90;;;;;;5080918;28;20043;-45
2023/12/29 04:57:15;;;;;;;15.05;2.78;;;9.30;99.90;;;;;;5083104;28;20068;-48
2023/12/29 04:59:41;;;;;;;15.95;3.08;;;9.30;99.90;;;;;;5063411;28;20074;-46
2023/12/29 05:02:07;;;;;;;17.60;3.30;;;9.20;99.90;;;;;;5083949;28;20078;-45
2023/12/29 05:04:33;;;;;;;20.25;3.38;;;9.30;99.90;;;;;;5082526;28;20062;-45
2023/12/29 05:06:58;;;;;;;20.65;3.38;;;9.30;99.90;;;;;;5086591;28;20039;-45
2023/12/29 05:09:24;;;;;;;16.95;3.30;;;9.30;99.90;;;;;;5084518;28;20051;-44
2023/12/29 05:11:49;;;;;;;17.27;3.58;;;9.30;99.90;;;;;;5085952;28;20036;-45
2023/12/29 05:14:15;;;;;;;19.20;3.65;;;9.30;99.90;;;;;;5080590;28;20082;-46
2023/12/29 05:16:42;;;;;;;14.30;3.00;;;9.30;99.90;;;;;;5085500;28;20040;-46
2023/12/29 05:19:08;;;;;;;18.20;3.42;;;9.30;99.90;;;;;;5084498;28;20387;-47
2023/12/29 05:21:33;;;;;;;21.83;4.22;;;9.30;99.90;;;;;;5084562;28;20048;-47
2023/12/29 05:23:59;;;;;;;15.65;2.95;;;9.30;99.90;;;;;;5082860;28;20043;-45
2023/12/29 05:26:25;;;;;;;15.35;3.60;;;9.20;99.90;;;;;;5086791;28;20397;-45
2023/12/29 05:28:51;;;;;;;17.33;3.17;;;9.30;99.90;;;;;;5083705;28;20117;-45
2023/12/29 05:31:16;;;;;;;21.25;3.22;;;9.30;99.90;;;;;;5080383;28;20058;-48
2023/12/29 05:33:43;;;;;;;17.73;3.97;;;9.20;99.90;;;;;;5081042;28;20044;-46
2023/12/29 05:36:10;;;;;;;19.13;3.80;;;9.20;99.90;;;;;;5080286;28;20043;-45
2023/12/29 05:38:36;;;;;;;14.43;3.55;;;9.20;99.90;;;;;;5077350;28;20374;-45
2023/12/29 05:41:04;;;;;;;15.70;3.40;;;9.20;99.90;;;;;;5085138;28;20055;-48
2023/12/29 05:43:31;;;;;;;20.40;3.92;;;9.20;99.90;;;;;;5082083;28;20043;-45
2023/12/29 05:45:57;;;;;;;14.40;3.45;;;9.20;99.90;;;;;;5084954;28;20036;-45
2023/12/29 05:48:23;;;;;;;18.25;3.50;;;9.20;99.90;;;;;;5064972;28;20054;-46
2023/12/29 05:50:50;;;;;;;17.15;3.83;;;9.20;99.90;;;;;;5084991;28;20036;-46
2023/12/29 05:53:16;;;;;;;17.25;3.80;;;9.20;99.90;;;;;;5086111;28;20370;-46
2023/12/29 05:55:41;;;;;;;16.25;3.92;;;9.20;99.90;;;;;;5086897;28;20032;-45
2023/12/29 05:58:07;;;;;;;17.95;3.45;;;9.30;99.90;;;;;;5085952;28;20163;-45
2023/12/29 06:00:33;;;;;;;15.55;3.08;;;9.30;99.90;;;;;;5086177;28;20040;-46
2023/12/29 06:02:59;;;;;;;15.88;3.42;;;9.30;99.90;;;;;;5087383;28;20131;-44
2023/12/29 06:05:24;;;;;;;16.63;3.33;;;9.30;99.90;;;;;;5069914;28;20044;-45
2023/12/29 06:07:50;;;;;;;15.80;3.58;;;9.30;99.90;;;;;;5087340;28;20032;-45
2023/12/29 06:10:16;;;;;;;14.10;3.30;;;9.30;99.90;;;;;;5082784;28;20154;-44
2023/12/29 06:12:42;;;;;;;21.52;3.65;;;9.40;99.90;;;;;;5083452;28;20043;-48
2023/12/29 06:15:08;;;;;;;18.02;3.58;;;9.30;99.90;;;;;;5088658;28;20085;-44
2023/12/29 06:17:35;;;;;;;19.73;3.58;;;9.30;99.90;;;;;;5083246;28;20058;-45
2023/12/29 06:20:03;;;;;;;16.07;3.50;;;9.30;99.90;;;;;;5068126;28;20116;-47
2023/12/29 06:22:28;;;;;;;;;;;9.30;99.90;;;;;;5084895;28;20115;-45
2023/12/29 06:24:54;;;;;;;20.35;3.75;;;9.40;99.90;;;;;;5087392;28;20104;-44
2023/12/29 06:27:20;;;;;;;18.25;3.45;;;9.30;99.90;;;;;;5081576;28;20256;-46
2023/12/29 06:29:45;;;;;;;16.27;3.38;;;9.30;99.90;;;;;;5069768;28;20079;-45
2023/12/29 06:32:11;;;;;;;18.67;3.20;;;9.30;99.90;;;;;;5083663;28;20044;-45
2023/12/29 06:34:37;;;;;;;18.65;4.68;;;9.30;99.90;;;;;;5062750;28;20127;-45
2023/12/29 06:37:03;;;;;;;21.23;3.88;;;9.30;99.90;;;;;;5084069;28;20032;-45
2023/12/29 06:39:28;;;;;;;23.95;4.03;;;9.30;99.90;;;;;;5081203;28;20210;-46
2023/12/29 06:41:54;;;;;;;22.75;3.58;;;9.30;99.90;;;;;;5084902;28;20097;-46
2023/12/29 06:44:21;;;;;;;22.25;4.30;;;9.30;99.90;;;;;;5081897;28;20517;-45
2023/12/29 06:46:46;;;;;;;22.67;4.07;;;9.30;99.90;;;;;;5083896;28;20044;-45
2023/12/29 06:49:12;;;;;;;21.67;4.25;;;9.30;99.90;;;;;;5082749;28;20036;-47
2023/12/29 06:51:40;;;;;;;22.25;4.13;;;9.30;99.90;;;;;;5077403;28;20054;-46
2023/12/29 06:54:06;;;;;;;24.58;4.20;;;9.30;99.90;;;;;;5085818;28;20052;-47
2023/12/29 06:56:32;;;;;;;20.90;4.30;;;9.30;99.90;;;;;;5084314;28;20051;-45
2023/12/29 06:58:58;;;;;;;19.92;4.22;;;9.40;99.90;;;;;;5086639;28;20036;-45
2023/12/29 07:01:24;;;;;;;26.20;4.60;;;9.40;99.90;;;;;;5082761;28;20782;-45
2023/12/29 07:03:50;;;;;;;22.65;4.18;;;9.40;99.90;;;;;;5090437;28;20122;-45
2023/12/29 07:06:16;;;;;;;22.48;4.10;;;9.40;99.90;;;;;;5087028;28;20370;-46
2023/12/29 07:08:41;;;;;;;26.42;3.80;;;9.40;99.90;;;;;;5085182;28;20042;-46
2023/12/29 07:11:11;;;;;;;24.35;4.85;;;9.40;99.90;;;;;;5083724;28;20044;-47
2023/12/29 07:13:37;;;;;;;20.67;4.03;;;9.30;99.90;;;;;;5087640;28;20071;-45
2023/12/29 07:16:04;;;;;;;21.08;4.72;;;9.40;99.90;;;;;;5086991;28;20125;-48
2023/12/29 07:18:29;;;;;;;21.65;4.32;;;9.30;99.90;;;;;;5087494;28;20040;-45
2023/12/29 07:20:55;;;;;;;21.95;4.22;;;9.30;99.90;;;;;;5083744;28;20044;-46
2023/12/29 07:23:21;;;;;;;19.17;3.72;;;9.30;99.90;;;;;;5083832;28;20127;-47
2023/12/29 07:25:47;;;;;;;18.50;3.95;;;9.30;99.90;;;;;;5084334;28;20089;-46
2023/12/29 07:28:13;;;;;;;16.40;4.03;;;9.30;99.90;;;;;;5086330;28;20036;-45
2023/12/29 07:30:39;;;;;;;25.40;4.10;;;9.30;99.90;;;;;;5083582;28;20412;-47
2023/12/29 07:33:04;;;;;;;24.38;4.05;;;9.40;99.90;;;;;;5081618;28;20385;-46
2023/12/29 07:35:30;;;;;;;20.45;3.90;;;9.40;99.90;;;;;;5083218;28;20044;-47
2023/12/29 07:37:56;;;;;;;14.02;3.10;;;9.40;99.90;;;;;;5079486;28;20089;-48
2023/12/29 07:40:22;;;;;;;22.77;4.30;;;9.50;99.90;;;;;;5075467;28;20083;-45
2023/12/29 07:42:50;;;;;;;22.52;4.05;;;9.50;99.90;;;;;;5076785;28;20048;-46
2023/12/29 07:45:16;;;;;;;22.50;3.90;;;9.50;99.90;;;;;;5081734;28;20148;-48
2023/12/29 07:47:42;;;;;;;23.63;3.55;;;9.50;99.90;;;;;;5079361;28;20051;-48
2023/12/29 07:50:08;;;;;;;19.58;4.20;;;9.40;99.90;;;;;;5080597;28;20051;-45
2023/12/29 07:52:34;;;;;;;23.08;4.20;;;9.40;99.90;;;;;;5079027;28;20040;-46
2023/12/29 07:54:59;;;;;;;20.35;4.13;;;9.40;99.90;;;;;;5080406;28;20190;-45
2023/12/29 07:57:25;;;;;;;18.27;3.65;;;9.40;99.90;;;;;;5080956;28;20040;-45
2023/12/29 07:59:51;;;;;;;19.85;4.43;;;9.40;99.90;;;;;;5057948;28;20051;-45
2023/12/29 08:02:16;;;;;;;16.60;3.25;;;9.40;99.90;;;;;;5078972;28;20509;-45
2023/12/29 08:04:42;;;;;;;21.33;4.07;;;9.40;99.90;;;;;;5088576;28;20039;-45
2023/12/29 08:07:07;;;;;;;22.45;4.25;;;9.40;99.90;;;;;;5085353;28;20032;-45
2023/12/29 08:09:33;;;;;;;22.17;3.83;;;9.40;99.90;;;;;;5081863;28;20075;-45
2023/12/29 08:12:00;;;;;;;19.67;3.85;;;9.40;99.90;;;;;;5079652;28;20096;-47
2023/12/29 08:14:26;;;;;;;17.70;3.42;;;9.40;99.90;;;;;;5078834;28;20511;-45
2023/12/29 08:16:51;;;;;;;18.80;3.30;;;9.40;99.90;;;;;;5081246;28;20131;-45
2023/12/29 08:19:17;;;;;;;16.92;3.60;;;9.40;99.90;;;;;;5089164;28;20106;-46
2023/12/29 08:21:42;;;;;;;20.05;3.38;;;9.40;99.90;;;;;;5085356;28;20051;-45
2023/12/29 08:24:08;;;;;;;18.75;3.90;;;9.50;99.90;;;;;;5084402;28;21027;-46
2023/12/29 08:26:34;;;;;;;18.80;3.80;;;9.40;99.90;;;;;;5088984;28;20498;-45
2023/12/29 08:28:59;;;;;;;21.17;3.60;;;9.50;99.90;;;;;;5086595;28;20036;-45
2023/12/29 08:31:27;;;;;;;16.13;3.40;;;9.50;99.90;;;;;;5083352;28;20126;-46
2023/12/29 08:33:52;;;;;;;18.45;3.30;;;9.50;99.90;;;;;;5084911;28;20493;-46
2023/12/29 08:36:19;;;;;;;16.50;3.30;;;9.50;99.90;;;;;;5082016;28;20059;-45
2023/12/29 08:38:45;;;;;;;16.98;3.60;;;9.50;99.90;;;;;;5079821;28;20468;-45
2023/12/29 08:41:14;;;;;;;17.08;3.40;;;9.60;99.90;;;;;;5080004;28;20048;-45
2023/12/29 08:43:39;;;;;;;17.08;3.03;;;9.60;99.90;;;;;;5086366;28;20047;-45
2023/12/29 08:46:05;;;;;;;14.50;3.25;;;9.60;99.90;;;;;;5088278;28;20040;-45
2023/12/29 08:48:30;;;;;;;15.73;3.20;;;9.60;99.90;;;;;;5089388;28;20463;-46
2023/12/29 08:50:56;;;;;;;14.98;2.88;;;9.70;99.90;;;;;;5090379;28;20466;-46
2023/12/29 08:53:22;;;;;;;15.75;3.08;;;9.70;99.90;;;;;;5087145;28;20048;-45
2023/12/29 08:55:47;;;;;;;11.63;2.60;;;9.70;99.90;;;;;;5090496;28;20100;-45
2023/12/29 08:58:13;;;;;;;11.27;3.15;;;9.80;99.90;;;;;;5089800;28;20121;-45
2023/12/29 09:00:38;;;;;;;9.80;2.45;;;9.80;99.90;;;;;;5089745;28;20040;-46
2023/12/29 09:03:04;;;;;;;8.15;2.22;;;9.80;99.90;;;;;;5089810;28;20036;-45
2023/12/29 09:05:30;;;;;;;12.88;2.72;;;9.80;99.90;;;;;;5090001;28;20048;-46
2023/12/29 09:07:55;;;;;;;11.63;2.58;;;9.80;99.90;;;;;;5086990;28;20051;-45
2023/12/29 09:10:22;;;;;;;12.07;2.70;;;9.80;99.90;;;;;;5089795;28;20040;-46
2023/12/29 09:12:49;;;;;;;12.35;3.00;;;9.80;99.90;;;;;;5090210;28;20048;-46
2023/12/29 09:15:15;;;;;;;13.40;2.85;;;9.90;99.90;;;;;;5089874;28;20428;-45
2023/12/29 09:17:40;;;;;;;7.32;2.15;;;9.90;99.90;;;;;;5089330;28;20108;-45
2023/12/29 09:20:07;;;;;;;8.65;2.10;;;9.90;99.90;;;;;;5090298;28;20064;-46
2023/12/29 09:22:33;;;;;;;11.77;2.45;;;9.90;99.90;;;;;;5095112;28;20131;-45
2023/12/29 09:24:59;;;;;;;10.95;2.33;;;9.90;99.90;;;;;;5092610;28;20119;-45
2023/12/29 09:27:25;;;;;;;8.57;2.20;;;9.90;99.90;;;;;;5090584;28;20118;-45
2023/12/29 09:29:50;;;;;;;8.85;2.45;;;10.00;99.90;;;;;;5092383;28;20044;-46
2023/12/29 09:32:16;;;;;;;10.45;2.28;;;9.90;99.90;;;;;;5092257;28;20040;-46
2023/12/29 09:34:42;;;;;;;12.98;2.67;;;9.90;99.90;;;;;;5086765;28;20493;-45
2023/12/29 09:37:08;;;;;;;14.25;2.80;;;9.90;99.90;;;;;;5090881;28;20339;-46
2023/12/29 09:39:34;;;;;;;11.20;2.60;;;9.80;99.90;;;;;;5091805;28;20048;-46
2023/12/29 09:42:00;;;;;;;8.52;2.53;;;9.80;99.90;;;;;;5092486;28;20070;-45
2023/12/29 09:44:30;;;;;;;10.45;2.38;;;9.70;99.90;;;;;;5070160;28;20449;-45
2023/12/29 09:47:01;;;;;;;7.82;2.28;;;9.70;99.90;;;;;;5093084;28;20046;-45
2023/12/29 09:49:35;;;;;;;11.10;2.30;;;9.60;99.90;;;;;;5093010;28;20048;-45
2023/12/29 09:52:02;;;;;;;11.43;2.35;;;9.50;99.90;;;;;;5090210;28;20048;-45
2023/12/29 09:54:29;;;;;;;6.00;1.30;;;9.20;99.90;;;;;;5090201;28;20127;-45
2023/12/29 09:56:55;;;;;;;6.65;1.50;;;8.90;99.90;;;;;;5087854;28;20040;-44
2023/12/29 09:59:22;;;;;;;4.03;1.10;;;8.70;99.90;;;;;;5087552;28;20123;-45
2023/12/29 10:01:48;;;;;;;7.35;1.48;;;8.60;99.90;;;;;;5087585;28;20055;-48
2023/12/29 10:04:14;;;;;;;4.82;1.52;;;8.60;99.90;;;;;;5087797;28;20047;-46
2023/12/29 10:06:47;;;;;;;6.20;2.40;;;8.50;99.90;;;;;;5085127;28;20040;-45
2023/12/29 10:09:15;;;;;;;9.23;2.53;;;8.60;99.90;;;;;;5088232;28;20040;-44
2023/12/29 10:11:44;;;;;;;7.93;2.53;;;8.60;99.90;;;;;;5086908;28;20071;-45
2023/12/29 10:14:22;;;;;;;8.40;2.80;;;8.80;99.90;;;;;;5087890;28;20094;-46
2023/12/29 10:16:54;;;;;;;9.35;3.03;;;8.80;99.90;;;;;;5073568;28;20070;-45
2023/12/29 10:19:38;;;;;;;11.18;2.50;;;8.80;99.90;;;;;;5091721;28;20556;-45
2023/12/29 10:22:18;;;;;;;7.03;1.73;;;8.80;99.90;;;;;;5091035;28;20098;-44
2023/12/29 10:24:46;;;;;;;8.70;2.10;;;8.70;99.90;;;;;;5091620;28;20044;-45
2023/12/29 10:27:13;;;;;;;8.88;2.20;;;8.70;99.90;;;;;;5091008;28;20292;-45
2023/12/29 10:29:38;;;;;;;6.18;1.48;;;8.80;99.90;;;;;;5088420;28;20439;-44
2023/12/29 10:32:04;;;;;;;8.52;1.90;;;8.80;99.90;;;;;;5090359;28;20048;-45
2023/12/29 10:34:31;;;;;;;6.05;1.50;;;8.70;99.90;;;;;;5090785;28;20043;-45
2023/12/29 10:36:58;;;;;;;4.82;1.20;;;8.60;99.90;;;;;;5092281;28;20048;-44
2023/12/29 10:39:24;;;;;;;3.17;0.88;;;8.20;99.90;;;;;;5091090;28;20414;-44
2023/12/29 10:42:02;;;;;;;5.45;0.98;;;7.30;99.90;;;;;;5073844;28;20044;-44
2023/12/29 10:44:27;;;;;;;2.08;0.88;;;7.20;99.90;;;;;;5089366;28;20150;-43
2023/12/29 10:46:53;;;;;;;3.55;1.13;;;7.20;99.90;;;;;;5091698;28;20115;-44
2023/12/29 10:49:18;;;;;;;2.95;1.17;;;7.30;99.90;;;;;;5090918;28;20470;-45
2023/12/29 10:51:44;;;;;;;4.75;1.17;;;7.30;99.90;;;;;;5089117;28;20113;-45
2023/12/29 10:54:23;;;;;;;4.95;1.10;;;7.30;99.90;;;;;;5090858;28;20075;-44
2023/12/29 10:57:02;;;;;;;2.30;1.00;;;7.10;99.90;;;;;;5092262;28;20127;-44
2023/12/29 10:59:28;;;;;;;7.43;1.17;;;7.20;99.90;;;;;;5089751;28;20044;-45
2023/12/29 11:01:54;;;;;;;6.47;1.40;;;7.20;99.90;;;;;;5090814;28;20514;-46
2023/12/29 11:04:22;;;;;;;5.82;1.38;;;7.20;99.90;;;;;;5089680;28;20512;-45
2023/12/29 11:06:50;;;;;;;4.28;1.40;;;7.30;99.90;;;;;;5090901;28;20035;-44
2023/12/29 11:09:30;;;;;;;8.40;1.90;;;7.40;99.90;;;;;;5090209;28;20040;-45
2023/12/29 11:12:01;;;;;;;9.00;2.55;;;7.60;99.90;;;;;;5090039;28;20075;-44
2023/12/29 11:14:30;;;;;;;8.05;2.50;;;7.80;99.90;;;;;;5090594;28;20036;-44
2023/12/29 11:16:58;;;;;;;9.55;2.90;;;8.00;99.90;;;;;;5090352;28;20047;-44
2023/12/29 11:19:24;;;;;;;;;;;8.20;99.90;;;;;;5089596;28;20131;-45
2023/12/29 11:21:53;;;;;;;10.68;2.88;;;8.30;99.90;;;;;;5091457;28;19955;-45
2023/12/29 11:24:19;;;;;;;11.98;2.88;;;8.40;99.90;;;;;;5091323;28;20079;-44
2023/12/29 11:26:44;;;;;;;13.55;3.10;;;8.50;99.90;;;;;;5091076;28;20052;-45
2023/12/29 11:29:11;;;;;;;15.30;4.15;;;8.50;99.90;;;;;;5092862;28;20069;-46
2023/12/29 11:31:41;;;;;;;10.17;3.67;;;8.60;99.90;;;;;;5090012;28;20042;-44
2023/12/29 11:34:26;;;;;;;13.20;3.78;;;8.70;99.90;;;;;;5086483;28;20123;-44
2023/12/29 11:37:00;;;;;;;12.98;3.42;;;8.80;99.90;;;;;;5088553;28;20453;-45
2023/12/29 11:39:40;;;;;;;11.15;3.70;;;8.90;99.90;;;;;;5089957;28;20490;-46
2023/12/29 11:42:27;;;;;;;14.13;3.60;;;9.00;99.90;;;;;;5090260;28;20052;-44
2023/12/29 11:44:52;;;;;;;13.10;3.90;;;9.10;99.90;;;;;;5089593;28;20032;-45
2023/12/29 11:47:37;;;;;;;12.68;3.60;;;9.20;99.90;;;;;;5090023;28;20036;-45
2023/12/29 11:50:04;;;;;;;10.18;2.72;;;9.20;99.90;;;;;;5090338;28;20493;-46
2023/12/29 11:52:37;;;;;;;16.58;3.55;;;9.20;99.90;;;;;;5089200;28;20390;-45
2023/12/29 11:55:14;;;;;;;11.18;2.88;;;9.30;99.90;;;;;;5072779;28;20603;-45
2023/12/29 11:57:41;;;;;;;9.90;3.40;;;9.30;99.90;;;;;;5090843;28;20043;-45
2023/12/29 12:00:08;;;;;;;11.65;2.90;;;9.40;99.90;;;;;;5068466;28;20390;-46
2023/12/29 12:02:34;;;;;;;9.52;3.47;;;9.40;99.90;;;;;;5087672;28;20043;-45
2023/12/29 12:04:59;;;;;;;9.88;2.92;;;9.40;99.90;;;;;;5089529;28;20047;-47
2023/12/29 12:07:25;;;;;;;9.75;2.40;;;9.50;99.90;;;;;;5089714;28;20489;-48
2023/12/29 12:09:51;;;;;;;9.50;2.53;;;9.50;99.90;;;;;;5090340;28;20162;-45
2023/12/29 12:12:42;;;;;;;9.52;2.63;;;9.60;99.90;;;;;;5091083;28;20040;-47
2023/12/29 12:15:38;;;;;;;10.35;2.40;;;9.60;99.90;;;;;;5073317;28;20319;-45
2023/12/29 12:18:09;;;;;;;13.80;3.05;;;9.70;99.90;;;;;;5072466;28;20472;-46
2023/12/29 12:20:35;;;;;;;9.50;2.45;;;9.70;99.90;;;;;;5090524;28;20040;-47
2023/12/29 12:23:17;;;;;;;11.55;2.60;;;9.70;99.90;;;;;;5072285;28;20093;-46
2023/12/29 12:25:46;;;;;;;16.10;3.05;;;9.60;99.90;;;;;;5089196;28;20044;-45
2023/12/29 12:28:14;;;;;;;10.80;2.42;;;9.60;99.90;;;;;;5089142;28;20091;-45
2023/12/29 12:30:39;;;;;;;11.80;2.53;;;9.70;99.90;;;;;;5092348;28;20044;-47
2023/12/29 12:33:05;;;;;;;10.93;2.60;;;9.70;99.90;;;;;;5090303;28;20134;-45
2023/12/29 12:35:31;;;;;;;12.57;2.50;;;9.80;99.90;;;;;;5088654;28;20104;-46
2023/12/29 12:38:12;;;;;;;9.98;2.45;;;9.80;99.90;;;;;;5089961;28;20032;-45
2023/12/29 12:40:40;;;;;;;15.10;2.97;;;9.80;99.90;;;;;;5089584;28;20127;-45
2023/12/29 12:43:07;;;;;;;9.50;2.33;;;9.80;99.90;;;;;;5085634;28;20044;-45
2023/12/29 12:45:47;;;;;;;13.07;3.13;;;9.80;99.90;;;;;;5088282;28;20118;-45
2023/12/29 12:48:21;;;;;;;19.05;2.90;;;9.90;99.90;;;;;;5091845;28;20042;-45
2023/12/29 12:50:49;;;;;;;13.10;2.65;;;9.90;99.90;;;;;;5094222;28;20071;-45